createdAt,value
2022-08-08T00:00:53.801Z,36.93
2022-08-08T00:01:00.387Z,36.93
2022-08-08T00:02:29.905Z,37.02
2022-08-08T00:02:59.556Z,36.93
2022-08-08T00:03:59.662Z,37.02
2022-08-08T00:04:59.582Z,36.93
2022-08-08T00:06:03.392Z,36.83
2022-08-08T00:06:59.560Z,36.93
2022-08-08T00:07:59.556Z,36.63
2022-08-08T00:08:59.657Z,36.93
2022-08-08T00:09:59.558Z,36.93
2022-08-08T00:10:59.560Z,36.93
2022-08-08T00:12:07.729Z,37.12
2022-08-08T00:12:59.565Z,36.63
2022-08-08T00:14:14.939Z,37.22
2022-08-08T00:15:01.158Z,37.22
2022-08-08T00:15:59.561Z,36.93
2022-08-08T00:16:59.563Z,36.73
2022-08-08T00:18:03.344Z,37.02
2022-08-08T00:18:59.565Z,36.73
2022-08-08T00:19:59.565Z,36.63
2022-08-08T00:21:00.703Z,36.63
2022-08-08T00:21:59.565Z,36.73
2022-08-08T00:22:59.569Z,37.02
2022-08-08T00:23:59.568Z,37.02
2022-08-08T00:24:59.568Z,36.73
2022-08-08T00:25:59.570Z,36.93
2022-08-08T00:26:59.571Z,36.73
2022-08-08T00:27:59.574Z,37.22
2022-08-08T00:28:59.571Z,37.22
2022-08-08T00:29:59.571Z,36.73
2022-08-08T00:31:00.439Z,36.73
2022-08-08T00:32:16.345Z,36.73
2022-08-08T00:32:59.574Z,37.12
2022-08-08T00:34:18.315Z,36.63
2022-08-08T00:34:59.575Z,36.93
2022-08-08T00:35:59.576Z,37.22
2022-08-08T00:37:03.484Z,37.22
2022-08-08T00:38:02.294Z,37.22
2022-08-08T00:38:59.637Z,37.12
2022-08-08T00:41:10.631Z,36.93
2022-08-08T00:41:11.727Z,36.93
2022-08-08T00:42:09.130Z,37.12
2022-08-08T00:43:11.798Z,37.12
2022-08-08T00:44:01.041Z,37.02
2022-08-08T00:44:59.582Z,37.12
2022-08-08T00:45:59.582Z,37.22
2022-08-08T00:46:59.582Z,37.12
2022-08-08T00:48:02.114Z,37.12
2022-08-08T00:49:01.323Z,36.73
2022-08-08T00:49:59.750Z,37.12
2022-08-08T00:50:59.586Z,36.73
2022-08-08T00:51:59.584Z,37.12
2022-08-08T00:52:59.586Z,37.12
2022-08-08T00:54:13.421Z,37.02
2022-08-08T00:54:59.589Z,36.63
2022-08-08T00:55:59.588Z,37.22
2022-08-08T00:56:59.588Z,37.02
2022-08-08T00:57:59.592Z,37.12
2022-08-08T00:58:59.590Z,37.12
2022-08-08T00:59:59.589Z,37.12
2022-08-08T01:00:59.629Z,37.02
2022-08-08T01:02:01.783Z,37.12
2022-08-08T01:03:59.402Z,37.12
2022-08-08T01:04:04.247Z,37.12
2022-08-08T01:04:59.594Z,36.83
2022-08-08T01:06:00.907Z,37.51
2022-08-08T01:07:01.499Z,37.22
2022-08-08T01:07:59.596Z,37.51
2022-08-08T01:08:59.597Z,37.41
2022-08-08T01:09:59.596Z,37.02
2022-08-08T01:10:59.598Z,36.83
2022-08-08T01:11:59.598Z,37.22
2022-08-08T01:12:59.598Z,36.93
2022-08-08T01:13:59.599Z,36.93
2022-08-08T01:15:00.481Z,37.12
2022-08-08T01:15:59.602Z,37.12
2022-08-08T01:16:59.603Z,37.12
2022-08-08T01:18:02.284Z,37.12
2022-08-08T01:19:02.818Z,37.12
2022-08-08T01:20:02.754Z,37.12
2022-08-08T01:20:59.605Z,37.02
2022-08-08T01:22:10.065Z,37.02
2022-08-08T01:22:59.606Z,37.12
2022-08-08T01:24:05.747Z,37.12
2022-08-08T01:24:59.606Z,37.02
2022-08-08T01:25:59.607Z,37.12
2022-08-08T01:26:59.609Z,37.12
2022-08-08T01:28:00.377Z,37.12
2022-08-08T01:28:59.614Z,37.22
2022-08-08T01:30:03.366Z,37.22
2022-08-08T01:30:59.611Z,37.12
2022-08-08T01:32:12.837Z,37.02
2022-08-08T01:32:59.612Z,37.12
2022-08-08T01:34:01.169Z,37.02
2022-08-08T01:34:59.614Z,36.93
2022-08-08T01:36:01.015Z,37.12
2022-08-08T01:36:59.614Z,37.12
2022-08-08T01:37:59.637Z,37.12
2022-08-08T01:38:59.643Z,36.93
2022-08-08T01:39:59.657Z,37.22
2022-08-08T01:40:59.616Z,37.22
2022-08-08T01:41:59.879Z,37.22
2022-08-08T01:42:59.618Z,36.63
2022-08-08T01:43:59.618Z,36.93
2022-08-08T01:44:59.619Z,37.02
2022-08-08T01:45:59.619Z,36.83
2022-08-08T01:46:59.621Z,36.83
2022-08-08T01:48:16.147Z,36.93
2022-08-08T01:48:59.623Z,37.02
2022-08-08T01:49:59.624Z,36.83
2022-08-08T01:50:59.625Z,37.02
2022-08-08T01:52:52.799Z,36.93
2022-08-08T01:54:11.242Z,36.93
2022-08-08T01:55:45.150Z,36.83
2022-08-08T01:55:45.333Z,36.93
2022-08-08T01:56:27.795Z,37.02
2022-08-08T01:56:59.628Z,36.83
2022-08-08T01:58:10.807Z,37.12
2022-08-08T01:59:02.775Z,36.83
2022-08-08T02:00:01.606Z,36.63
2022-08-08T02:00:59.704Z,36.73
2022-08-08T02:02:04.926Z,36.73
2022-08-08T02:02:59.636Z,36.73
2022-08-08T02:03:59.633Z,36.73
2022-08-08T02:04:59.638Z,36.63
2022-08-08T02:05:59.634Z,37.02
2022-08-08T02:06:59.634Z,36.63
2022-08-08T02:07:59.640Z,36.83
2022-08-08T02:08:59.645Z,36.73
2022-08-08T02:10:03.837Z,36.73
2022-08-08T02:10:59.646Z,36.73
2022-08-08T02:12:00.852Z,36.73
2022-08-08T02:12:59.637Z,36.73
2022-08-08T02:13:59.643Z,36.93
2022-08-08T02:14:59.710Z,36.93
2022-08-08T02:15:59.642Z,36.93
2022-08-08T02:16:59.641Z,36.93
2022-08-08T02:17:59.642Z,36.73
2022-08-08T02:18:59.641Z,36.93
2022-08-08T02:20:09.394Z,36.83
2022-08-08T02:21:00.164Z,36.93
2022-08-08T02:21:59.645Z,36.73
2022-08-08T02:22:59.644Z,36.71
2022-08-08T02:23:59.645Z,36.93
2022-08-08T02:24:59.645Z,36.73
2022-08-08T02:26:00.658Z,36.54
2022-08-08T02:27:00.822Z,36.63
2022-08-08T02:28:01.047Z,36.83
2022-08-08T02:28:59.647Z,36.93
2022-08-08T02:29:59.650Z,36.93
2022-08-08T02:31:02.061Z,36.83
2022-08-08T02:32:04.700Z,36.93
2022-08-08T02:32:59.650Z,36.93
2022-08-08T02:34:08.354Z,36.63
2022-08-08T02:35:10.703Z,36.83
2022-08-08T02:36:03.301Z,36.93
2022-08-08T02:36:59.653Z,36.93
2022-08-08T02:37:59.655Z,36.93
2022-08-08T02:39:00.895Z,36.63
2022-08-08T02:40:00.764Z,36.54
2022-08-08T02:40:59.655Z,36.83
2022-08-08T02:42:05.632Z,36.54
2022-08-08T02:44:34.595Z,36.54
2022-08-08T02:44:37.558Z,36.73
2022-08-08T02:44:59.658Z,36.52
2022-08-08T02:45:59.660Z,36.83
2022-08-08T02:46:59.659Z,36.73
2022-08-08T02:47:59.661Z,36.63
2022-08-08T02:48:59.663Z,36.54
2022-08-08T02:49:59.662Z,36.61
2022-08-08T02:50:59.662Z,36.52
2022-08-08T02:52:03.188Z,36.63
2022-08-08T02:52:59.666Z,36.54
2022-08-08T02:53:59.666Z,36.24
2022-08-08T02:54:59.664Z,36.93
2022-08-08T02:55:59.798Z,36.34
2022-08-08T02:56:59.668Z,36.93
2022-08-08T02:57:59.670Z,36.81
2022-08-08T02:58:59.668Z,36.83
2022-08-08T03:00:27.212Z,36.83
2022-08-08T03:00:59.727Z,36.15
2022-08-08T03:01:59.715Z,36.24
2022-08-08T03:02:59.670Z,37.02
2022-08-08T03:05:03.849Z,36.15
2022-08-08T03:05:05.416Z,36.83
2022-08-08T03:05:59.673Z,36.83
2022-08-08T03:06:59.675Z,36.83
2022-08-08T03:07:59.674Z,36.83
2022-08-08T03:08:59.673Z,36.83
2022-08-08T03:09:59.677Z,37.02
2022-08-08T03:10:59.675Z,36.83
2022-08-08T03:12:02.575Z,36.93
2022-08-08T03:13:02.325Z,36.54
2022-08-08T03:15:57.499Z,36.44
2022-08-08T03:16:01.434Z,36.83
2022-08-08T03:16:05.779Z,36.54
2022-08-08T03:16:59.680Z,36.54
2022-08-08T03:18:06.411Z,36.54
2022-08-08T03:18:59.682Z,36.44
2022-08-08T03:19:59.683Z,36.93
2022-08-08T03:20:59.682Z,36.54
2022-08-08T03:22:00.173Z,36.52
2022-08-08T03:23:00.635Z,36.54
2022-08-08T03:24:01.829Z,36.44
2022-08-08T03:24:59.685Z,36.15
2022-08-08T03:25:59.688Z,36.54
2022-08-08T03:26:59.696Z,36.15
2022-08-08T03:27:59.688Z,36.24
2022-08-08T03:28:59.692Z,36.54
2022-08-08T03:29:59.688Z,36.44
2022-08-08T03:31:13.545Z,36.44
2022-08-08T03:32:06.430Z,36.44
2022-08-08T03:33:07.509Z,36.44
2022-08-08T03:34:01.057Z,36.44
2022-08-08T03:34:59.692Z,36.44
2022-08-08T03:35:59.692Z,36.34
2022-08-08T03:36:59.691Z,36.34
2022-08-08T03:38:56.694Z,36.73
2022-08-08T03:39:14.289Z,36.73
2022-08-08T03:40:02.122Z,36.63
2022-08-08T03:41:00.954Z,36.73
2022-08-08T03:42:27.937Z,36.73
2022-08-08T03:43:16.760Z,36.73
2022-08-08T03:43:59.935Z,36.73
2022-08-08T03:44:59.708Z,36.83
2022-08-08T03:46:07.442Z,36.73
2022-08-08T03:46:59.699Z,36.73
2022-08-08T03:47:59.706Z,36.24
2022-08-08T03:49:26.566Z,36.34
2022-08-08T03:50:02.280Z,35.96
2022-08-08T03:50:59.702Z,36.15
2022-08-08T03:51:59.704Z,36.83
2022-08-08T03:52:59.702Z,36.73
2022-08-08T03:53:59.704Z,35.96
2022-08-08T03:55:10.087Z,36.34
2022-08-08T03:56:04.835Z,36.24
2022-08-08T03:56:59.706Z,36.24
2022-08-08T03:58:34.998Z,36.44
2022-08-08T03:58:59.707Z,36.05
2022-08-08T04:00:07.655Z,36.15
2022-08-08T04:01:20.993Z,36.34
2022-08-08T04:02:12.539Z,36.15
2022-08-08T04:03:00.359Z,36.05
2022-08-08T04:04:01.864Z,36.15
2022-08-08T04:04:59.710Z,36.15
2022-08-08T04:05:59.712Z,36.05
2022-08-08T04:07:01.427Z,36.15
2022-08-08T04:08:00.741Z,36.05
2022-08-08T04:09:08.763Z,36.15
2022-08-08T04:10:05.521Z,36.24
2022-08-08T04:11:00.142Z,36.15
2022-08-08T04:12:00.581Z,36.34
2022-08-08T04:12:59.715Z,36.15
2022-08-08T04:14:03.387Z,36.15
2022-08-08T04:14:59.718Z,36.05
2022-08-08T04:16:04.028Z,35.96
2022-08-08T04:16:59.718Z,36.15
2022-08-08T04:17:59.732Z,36.15
2022-08-08T04:18:59.719Z,35.96
2022-08-08T04:20:02.076Z,35.86
2022-08-08T04:20:59.721Z,36.44
2022-08-08T04:21:59.723Z,35.96
2022-08-08T04:22:59.725Z,35.86
2022-08-08T04:24:11.972Z,35.86
2022-08-08T04:24:59.725Z,35.57
2022-08-08T04:26:02.176Z,35.96
2022-08-08T04:26:59.724Z,35.96
2022-08-08T04:28:10.651Z,35.94
2022-08-08T04:28:59.726Z,35.66
2022-08-08T04:30:01.021Z,35.76
2022-08-08T04:30:59.729Z,35.76
2022-08-08T04:32:00.610Z,35.76
2022-08-08T04:32:59.740Z,35.76
2022-08-08T04:33:59.731Z,35.86
2022-08-08T04:34:59.730Z,35.96
2022-08-08T04:35:59.747Z,35.86
2022-08-08T04:37:00.984Z,35.86
2022-08-08T04:37:59.733Z,35.86
2022-08-08T04:39:48.159Z,35.76
2022-08-08T04:40:05.664Z,35.86
2022-08-08T04:40:59.790Z,35.76
2022-08-08T04:41:59.737Z,35.86
2022-08-08T04:43:01.147Z,35.86
2022-08-08T04:43:59.739Z,35.86
2022-08-08T04:44:59.738Z,35.76
2022-08-08T04:45:59.740Z,35.86
2022-08-08T04:46:59.738Z,35.86
2022-08-08T04:48:00.500Z,35.86
2022-08-08T04:48:59.741Z,35.96
2022-08-08T04:50:04.730Z,35.66
2022-08-08T04:50:59.741Z,36.05
2022-08-08T04:51:59.744Z,35.86
2022-08-08T04:53:04.823Z,35.96
2022-08-08T04:54:40.135Z,35.86
2022-08-08T04:54:59.745Z,35.86
2022-08-08T04:55:59.775Z,35.86
2022-08-08T04:56:59.744Z,36.05
2022-08-08T04:57:59.749Z,35.96
2022-08-08T04:58:59.747Z,35.86
2022-08-08T04:59:59.837Z,35.66
2022-08-08T05:00:59.758Z,35.86
2022-08-08T05:01:59.814Z,35.86
2022-08-08T05:02:59.749Z,35.76
2022-08-08T05:04:11.202Z,35.86
2022-08-08T05:05:00.033Z,35.66
2022-08-08T05:05:59.753Z,35.76
2022-08-08T05:06:59.752Z,35.66
2022-08-08T05:07:59.754Z,36.15
2022-08-08T05:09:03.084Z,35.57
2022-08-08T05:09:59.755Z,35.86
2022-08-08T05:10:59.755Z,35.96
2022-08-08T05:11:59.757Z,35.57
2022-08-08T05:13:01.710Z,35.57
2022-08-08T05:14:01.449Z,35.47
2022-08-08T05:14:59.760Z,35.47
2022-08-08T05:16:52.195Z,35.57
2022-08-08T05:17:01.403Z,35.47
2022-08-08T05:17:59.770Z,35.66
2022-08-08T05:18:59.761Z,35.47
2022-08-08T05:20:11.097Z,35.57
2022-08-08T05:20:59.761Z,35.66
2022-08-08T05:22:00.577Z,35.57
2022-08-08T05:22:59.766Z,35.27
2022-08-08T05:24:08.581Z,35.27
2022-08-08T05:24:59.786Z,35.86
2022-08-08T05:26:00.316Z,35.66
2022-08-08T05:26:59.768Z,35.37
2022-08-08T05:27:59.768Z,35.76
2022-08-08T05:29:04.713Z,35.57
2022-08-08T05:29:59.770Z,35.57
2022-08-08T05:31:08.602Z,35.57
2022-08-08T05:32:03.810Z,35.08
2022-08-08T05:32:59.772Z,35.37
2022-08-08T05:33:59.770Z,35.27
2022-08-08T05:35:05.310Z,35.37
2022-08-08T05:35:59.773Z,35.27
2022-08-08T05:36:59.773Z,35.27
2022-08-08T05:37:59.817Z,35.27
2022-08-08T05:38:59.774Z,35.37
2022-08-08T05:39:59.778Z,35.17
2022-08-08T05:40:59.775Z,34.98
2022-08-08T05:41:59.776Z,35.17
2022-08-08T05:42:59.776Z,34.98
2022-08-08T05:44:03.721Z,34.88
2022-08-08T05:45:00.700Z,35.27
2022-08-08T05:46:03.226Z,36.05
2022-08-08T05:47:03.163Z,35.66
2022-08-08T05:48:01.263Z,35.27
2022-08-08T05:48:59.780Z,35.08
2022-08-08T05:49:59.784Z,35.17
2022-08-08T05:51:13.212Z,35.27
2022-08-08T05:51:59.783Z,35.08
2022-08-08T05:53:23.070Z,34.88
2022-08-08T05:54:27.476Z,34.88
2022-08-08T05:55:04.639Z,34.98
2022-08-08T05:56:11.313Z,34.88
2022-08-08T05:56:59.785Z,34.88
2022-08-08T05:58:06.153Z,35.08
2022-08-08T05:59:03.829Z,34.98
2022-08-08T06:00:22.805Z,34.69
2022-08-08T06:00:59.787Z,34.98
2022-08-08T06:01:59.910Z,34.98
2022-08-08T06:02:59.828Z,34.88
2022-08-08T06:04:01.935Z,34.98
2022-08-08T06:04:59.789Z,34.88
2022-08-08T06:06:01.505Z,34.88
2022-08-08T06:07:00.301Z,34.88
2022-08-08T06:08:02.473Z,34.69
2022-08-08T06:09:00.515Z,34.88
2022-08-08T06:10:02.473Z,34.98
2022-08-08T06:10:59.796Z,34.98
2022-08-08T06:11:59.798Z,34.98
2022-08-08T06:12:59.798Z,35.08
2022-08-08T06:13:59.798Z,34.88
2022-08-08T06:14:59.798Z,34.98
2022-08-08T06:15:59.800Z,35.08
2022-08-08T06:16:59.800Z,34.98
2022-08-08T06:18:21.276Z,34.98
2022-08-08T06:18:59.803Z,34.98
2022-08-08T06:19:59.803Z,34.98
2022-08-08T06:21:03.714Z,35.17
2022-08-08T06:21:59.896Z,35.17
2022-08-08T06:22:59.804Z,35.08
2022-08-08T06:24:05.081Z,34.88
2022-08-08T06:24:59.810Z,34.79
2022-08-08T06:26:38.748Z,34.79
2022-08-08T06:26:59.807Z,34.88
2022-08-08T06:27:59.807Z,34.79
2022-08-08T06:29:02.192Z,34.88
2022-08-08T06:30:02.007Z,34.88
2022-08-08T06:30:59.813Z,34.79
2022-08-08T06:32:09.786Z,34.69
2022-08-08T06:33:01.215Z,34.69
2022-08-08T06:34:25.688Z,34.79
2022-08-08T06:35:12.304Z,34.98
2022-08-08T06:36:07.567Z,34.59
2022-08-08T06:37:00.184Z,34.50
2022-08-08T06:37:59.816Z,34.88
2022-08-08T06:39:00.002Z,34.79
2022-08-08T06:40:00.761Z,34.88
2022-08-08T06:40:59.817Z,34.59
2022-08-08T06:41:59.818Z,34.59
2022-08-08T06:42:59.820Z,34.50
2022-08-08T06:43:59.819Z,34.50
2022-08-08T06:44:59.824Z,34.40
2022-08-08T06:45:59.820Z,34.50
2022-08-08T06:46:59.822Z,34.50
2022-08-08T06:48:01.820Z,34.50
2022-08-08T06:48:59.823Z,34.50
2022-08-08T06:49:59.822Z,34.40
2022-08-08T06:51:02.373Z,34.20
2022-08-08T06:51:59.825Z,34.30
2022-08-08T06:52:59.835Z,34.30
2022-08-08T06:54:00.768Z,34.20
2022-08-08T06:54:59.830Z,34.30
2022-08-08T06:56:02.339Z,34.30
2022-08-08T06:56:59.830Z,34.20
2022-08-08T06:58:03.791Z,34.20
2022-08-08T06:58:59.832Z,34.20
2022-08-08T07:00:10.303Z,34.20
2022-08-08T07:00:59.832Z,34.20
2022-08-08T07:02:26.791Z,34.20
2022-08-08T07:02:59.914Z,34.30
2022-08-08T07:04:37.357Z,34.20
2022-08-08T07:05:00.332Z,34.20
2022-08-08T07:06:02.010Z,34.20
2022-08-08T07:06:59.836Z,34.12
2022-08-08T07:07:59.840Z,34.32
2022-08-08T07:08:59.837Z,34.40
2022-08-08T07:10:00.909Z,34.03
2022-08-08T07:10:59.842Z,34.30
2022-08-08T07:11:59.840Z,34.01
2022-08-08T07:12:59.841Z,34.03
2022-08-08T07:14:00.879Z,34.11
2022-08-08T07:14:59.843Z,34.11
2022-08-08T07:16:04.465Z,34.01
2022-08-08T07:16:59.846Z,34.11
2022-08-08T07:18:34.551Z,34.11
2022-08-08T07:18:59.849Z,34.20
2022-08-08T07:20:00.227Z,34.11
2022-08-08T07:21:01.855Z,34.30
2022-08-08T07:22:05.411Z,34.12
2022-08-08T07:22:59.850Z,34.20
2022-08-08T07:24:03.111Z,34.11
2022-08-08T07:24:59.852Z,34.11
2022-08-08T07:25:59.851Z,34.11
2022-08-08T07:26:59.856Z,34.20
2022-08-08T07:28:02.858Z,33.93
2022-08-08T07:28:59.854Z,34.12
2022-08-08T07:30:05.962Z,34.01
2022-08-08T07:30:59.859Z,34.11
2022-08-08T07:31:59.858Z,34.22
2022-08-08T07:33:01.099Z,34.20
2022-08-08T07:33:59.863Z,34.11
2022-08-08T07:35:00.910Z,34.11
2022-08-08T07:35:59.859Z,34.20
2022-08-08T07:36:59.861Z,34.20
2022-08-08T07:38:09.757Z,34.22
2022-08-08T07:39:00.095Z,34.11
2022-08-08T07:40:00.058Z,34.11
2022-08-08T07:41:04.333Z,34.11
2022-08-08T07:42:04.075Z,34.11
2022-08-08T07:42:59.877Z,34.01
2022-08-08T07:43:59.866Z,34.11
2022-08-08T07:44:59.869Z,34.01
2022-08-08T07:46:17.595Z,34.01
2022-08-08T07:46:59.870Z,34.20
2022-08-08T07:47:59.870Z,33.93
2022-08-08T07:48:59.870Z,34.11
2022-08-08T07:49:59.871Z,34.11
2022-08-08T07:50:59.873Z,34.20
2022-08-08T07:51:59.873Z,34.32
2022-08-08T07:52:59.874Z,34.11
2022-08-08T07:54:02.660Z,34.20
2022-08-08T07:54:59.875Z,34.20
2022-08-08T07:55:59.875Z,34.11
2022-08-08T07:56:59.885Z,34.20
2022-08-08T07:57:59.877Z,34.30
2022-08-08T07:58:59.879Z,34.20
2022-08-08T07:59:59.885Z,34.50
2022-08-08T08:01:00.097Z,34.30
2022-08-08T08:02:34.328Z,34.50
2022-08-08T08:02:59.883Z,34.42
2022-08-08T08:03:59.883Z,34.40
2022-08-08T08:04:59.883Z,34.50
2022-08-08T08:05:59.901Z,34.59
2022-08-08T08:06:59.885Z,34.50
2022-08-08T08:07:59.885Z,34.40
2022-08-08T08:08:59.886Z,34.50
2022-08-08T08:09:59.887Z,34.59
2022-08-08T08:10:59.888Z,34.50
2022-08-08T08:11:59.889Z,34.59
2022-08-08T08:12:59.890Z,34.50
2022-08-08T08:14:07.904Z,34.50
2022-08-08T08:15:02.940Z,34.50
2022-08-08T08:15:59.895Z,34.59
2022-08-08T08:16:59.892Z,34.50
2022-08-08T08:17:59.893Z,34.50
2022-08-08T08:18:59.895Z,34.50
2022-08-08T08:19:59.895Z,34.50
2022-08-08T08:20:59.896Z,34.59
2022-08-08T08:22:00.945Z,34.88
2022-08-08T08:22:59.900Z,34.69
2022-08-08T08:23:59.952Z,34.79
2022-08-08T08:25:07.509Z,34.50
2022-08-08T08:26:00.122Z,34.88
2022-08-08T08:26:59.901Z,34.88
2022-08-08T08:27:59.911Z,34.88
2022-08-08T08:28:59.902Z,34.79
2022-08-08T08:29:59.907Z,34.88
2022-08-08T08:30:59.905Z,34.79
2022-08-08T08:32:03.320Z,34.88
2022-08-08T08:32:59.905Z,34.88
2022-08-08T08:33:59.904Z,34.69
2022-08-08T08:34:59.908Z,34.79
2022-08-08T08:36:18.521Z,34.88
2022-08-08T08:36:59.908Z,34.50
2022-08-08T08:38:17.166Z,34.50
2022-08-08T08:39:00.088Z,34.69
2022-08-08T08:40:02.790Z,35.17
2022-08-08T08:40:59.911Z,34.88
2022-08-08T08:41:59.911Z,35.27
2022-08-08T08:43:00.677Z,34.98
2022-08-08T08:44:14.260Z,34.88
2022-08-08T08:44:59.915Z,35.17
2022-08-08T08:46:05.505Z,35.08
2022-08-08T08:46:59.915Z,34.50
2022-08-08T08:48:01.086Z,34.79
2022-08-08T08:48:59.918Z,35.08
2022-08-08T08:49:59.917Z,34.59
2022-08-08T08:50:59.920Z,34.98
2022-08-08T08:52:00.548Z,35.08
2022-08-08T08:53:04.442Z,35.17
2022-08-08T08:54:01.140Z,35.08
2022-08-08T08:54:59.921Z,34.79
2022-08-08T08:56:02.014Z,35.17
2022-08-08T08:56:59.923Z,34.79
2022-08-08T08:57:59.923Z,35.17
2022-08-08T08:59:01.262Z,34.88
2022-08-08T09:00:04.940Z,34.88
2022-08-08T09:01:08.924Z,35.08
2022-08-08T09:02:00.043Z,35.17
2022-08-08T09:02:59.927Z,34.88
2022-08-08T09:03:59.931Z,35.08
2022-08-08T09:04:59.929Z,34.69
2022-08-08T09:05:59.928Z,35.08
2022-08-08T09:06:59.930Z,35.17
2022-08-08T09:08:13.162Z,34.79
2022-08-08T09:08:59.931Z,34.79
2022-08-08T09:09:59.934Z,34.79
2022-08-08T09:10:59.934Z,34.88
2022-08-08T09:12:01.590Z,34.79
2022-08-08T09:12:59.934Z,34.69
2022-08-08T09:13:59.935Z,34.88
2022-08-08T09:14:59.937Z,34.79
2022-08-08T09:16:03.926Z,34.79
2022-08-08T09:16:59.937Z,34.79
2022-08-08T09:18:00.376Z,34.88
2022-08-08T09:18:59.943Z,34.79
2022-08-08T09:21:59.988Z,34.69
2022-08-08T09:22:00.315Z,34.79
2022-08-08T09:22:06.090Z,34.69
2022-08-08T09:22:59.942Z,34.88
2022-08-08T09:23:59.942Z,34.88
2022-08-08T09:24:59.946Z,34.79
2022-08-08T09:26:02.314Z,34.69
2022-08-08T09:26:59.946Z,34.79
2022-08-08T09:28:00.222Z,34.69
2022-08-08T09:28:59.946Z,34.69
2022-08-08T09:29:59.947Z,34.69
2022-08-08T09:30:59.952Z,34.69
2022-08-08T09:31:59.949Z,34.79
2022-08-08T09:33:12.295Z,34.50
2022-08-08T09:34:31.138Z,35.17
2022-08-08T09:34:59.951Z,34.69
2022-08-08T09:35:59.952Z,34.98
2022-08-08T09:37:57.477Z,34.88
2022-08-08T09:38:02.289Z,35.17
2022-08-08T09:38:59.973Z,35.08
2022-08-08T09:40:00.044Z,34.59
2022-08-08T09:40:59.960Z,34.11
2022-08-08T09:42:21.252Z,34.11
2022-08-08T09:42:59.958Z,34.40
2022-08-08T09:44:05.555Z,34.20
2022-08-08T09:45:04.159Z,34.30
2022-08-08T09:46:02.889Z,34.03
2022-08-08T09:47:05.367Z,33.91
2022-08-08T09:48:03.046Z,34.03
2022-08-08T09:49:18.414Z,33.83
2022-08-08T09:50:03.958Z,33.93
2022-08-08T09:50:59.963Z,33.83
2022-08-08T09:52:06.318Z,33.93
2022-08-08T09:53:05.579Z,33.72
2022-08-08T09:54:09.480Z,33.81
2022-08-08T09:54:59.966Z,33.81
2022-08-08T09:56:04.349Z,33.73
2022-08-08T09:56:59.969Z,34.11
2022-08-08T09:57:59.970Z,34.03
2022-08-08T09:58:59.970Z,34.03
2022-08-08T10:00:37.393Z,33.73
2022-08-08T10:00:59.971Z,33.54
2022-08-08T10:02:12.958Z,33.73
2022-08-08T10:02:59.979Z,33.73
2022-08-08T10:04:02.218Z,33.54
2022-08-08T10:05:00.039Z,33.44
2022-08-08T10:06:00.040Z,33.54
2022-08-08T10:06:59.978Z,33.44
2022-08-08T10:08:01.155Z,33.34
2022-08-08T10:09:00.258Z,33.25
2022-08-08T10:10:01.687Z,33.34
2022-08-08T10:10:59.982Z,33.15
2022-08-08T10:12:27.506Z,33.25
2022-08-08T10:13:06.209Z,33.25
2022-08-08T10:13:59.982Z,33.25
2022-08-08T10:14:59.984Z,33.34
2022-08-08T10:16:01.626Z,33.25
2022-08-08T10:16:59.986Z,33.15
2022-08-08T10:18:11.835Z,33.34
2022-08-08T10:18:59.990Z,33.34
2022-08-08T10:20:00.508Z,33.15
2022-08-08T10:21:03.358Z,33.34
2022-08-08T10:21:59.990Z,33.34
2022-08-08T10:22:59.992Z,33.64
2022-08-08T10:24:00.069Z,33.25
2022-08-08T10:25:01.238Z,32.86
2022-08-08T10:25:59.994Z,33.34
2022-08-08T10:27:00.255Z,33.25
2022-08-08T10:27:59.996Z,33.25
2022-08-08T10:29:00.319Z,33.34
2022-08-08T10:30:00.103Z,33.15
2022-08-08T10:31:01.959Z,33.25
2022-08-08T10:32:00.003Z,33.25
2022-08-08T10:33:00.351Z,33.34
2022-08-08T10:34:19.304Z,33.15
2022-08-08T10:35:01.361Z,33.06
2022-08-08T10:36:08.765Z,33.06
2022-08-08T10:37:00.173Z,33.06
2022-08-08T10:38:00.007Z,33.06
2022-08-08T10:39:00.175Z,33.15
2022-08-08T10:40:00.066Z,33.06
2022-08-08T10:41:00.007Z,33.15
2022-08-08T10:42:16.374Z,33.06
2022-08-08T10:43:00.018Z,33.06
2022-08-08T10:44:00.015Z,32.96
2022-08-08T10:45:00.012Z,32.96
2022-08-08T10:46:00.036Z,32.96
2022-08-08T10:47:00.013Z,32.96
2022-08-08T10:48:00.029Z,32.96
2022-08-08T10:49:00.017Z,32.96
2022-08-08T10:50:02.842Z,32.86
2022-08-08T10:51:00.018Z,32.96
2022-08-08T10:52:00.026Z,32.76
2022-08-08T10:53:00.020Z,32.96
2022-08-08T10:54:02.002Z,33.06
2022-08-08T10:55:00.023Z,32.86
2022-08-08T10:56:00.023Z,32.86
2022-08-08T10:57:00.026Z,32.67
2022-08-08T10:58:00.025Z,32.76
2022-08-08T10:59:00.028Z,32.47
2022-08-08T11:00:00.027Z,32.47
2022-08-08T11:01:02.882Z,32.67
2022-08-08T11:02:00.105Z,32.67
2022-08-08T11:03:00.029Z,32.57
2022-08-08T11:04:02.288Z,32.57
2022-08-08T11:05:00.031Z,32.47
2022-08-08T11:06:00.661Z,32.67
2022-08-08T11:07:00.050Z,32.86
2022-08-08T11:08:38.804Z,32.76
2022-08-08T11:09:00.032Z,32.76
2022-08-08T11:10:00.041Z,32.67
2022-08-08T11:11:00.035Z,32.76
2022-08-08T11:12:13.052Z,32.76
2022-08-08T11:13:28.103Z,32.65
2022-08-08T11:14:00.735Z,32.57
2022-08-08T11:15:00.110Z,32.76
2022-08-08T11:16:00.670Z,32.76
2022-08-08T11:17:00.042Z,32.67
2022-08-08T11:18:02.241Z,32.96
2022-08-08T11:19:00.049Z,32.84
2022-08-08T11:20:03.978Z,32.45
2022-08-08T11:21:00.055Z,32.47
2022-08-08T11:22:00.047Z,32.67
2022-08-08T11:23:00.052Z,32.67
2022-08-08T11:24:01.646Z,32.67
2022-08-08T11:25:00.052Z,32.57
2022-08-08T11:26:00.051Z,32.57
2022-08-08T11:27:00.063Z,32.67
2022-08-08T11:28:00.058Z,32.76
2022-08-08T11:29:00.053Z,32.57
2022-08-08T11:30:19.575Z,32.67
2022-08-08T11:31:00.544Z,32.67
2022-08-08T11:32:00.072Z,32.65
2022-08-08T11:33:00.062Z,32.76
2022-08-08T11:34:03.049Z,32.76
2022-08-08T11:35:37.656Z,32.67
2022-08-08T11:36:00.074Z,32.76
2022-08-08T11:37:00.058Z,32.76
2022-08-08T11:38:38.798Z,32.86
2022-08-08T11:39:00.079Z,32.57
2022-08-08T11:40:00.142Z,32.57
2022-08-08T11:41:00.080Z,32.57
2022-08-08T11:42:00.074Z,32.67
2022-08-08T11:43:00.062Z,32.55
2022-08-08T11:44:00.537Z,32.67
2022-08-08T11:45:00.079Z,32.86
2022-08-08T11:46:14.290Z,32.76
2022-08-08T11:47:00.074Z,32.47
2022-08-08T11:48:04.347Z,32.57
2022-08-08T11:49:00.120Z,32.76
2022-08-08T11:50:00.077Z,32.86
2022-08-08T11:51:00.074Z,32.86
2022-08-08T11:52:00.080Z,32.76
2022-08-08T11:53:00.071Z,32.65
2022-08-08T11:54:02.255Z,32.67
2022-08-08T11:55:00.075Z,32.67
2022-08-08T11:56:00.094Z,32.57
2022-08-08T11:57:00.076Z,32.67
2022-08-08T11:58:02.326Z,32.57
2022-08-08T11:59:00.077Z,32.57
2022-08-08T12:00:02.859Z,32.67
2022-08-08T12:01:00.166Z,32.67
2022-08-08T12:02:21.415Z,32.57
2022-08-08T12:03:00.158Z,32.37
2022-08-08T12:04:00.164Z,32.18
2022-08-08T12:05:00.093Z,32.47
2022-08-08T12:06:00.083Z,32.45
2022-08-08T12:07:00.093Z,32.57
2022-08-08T12:08:00.107Z,32.28
2022-08-08T12:09:00.107Z,32.57
2022-08-08T12:10:06.082Z,32.45
2022-08-08T12:11:00.087Z,32.26
2022-08-08T12:12:00.113Z,32.35
2022-08-08T12:13:00.093Z,32.37
2022-08-08T12:14:03.736Z,32.45
2022-08-08T12:15:00.092Z,32.35
2022-08-08T12:16:00.096Z,32.47
2022-08-08T12:17:00.092Z,32.67
2022-08-08T12:18:00.249Z,32.45
2022-08-08T12:19:00.094Z,32.28
2022-08-08T12:20:00.107Z,32.47
2022-08-08T12:21:00.185Z,32.28
2022-08-08T12:22:09.250Z,32.45
2022-08-08T12:23:00.097Z,32.26
2022-08-08T12:24:00.405Z,32.07
2022-08-08T12:25:00.117Z,32.47
2022-08-08T12:26:00.101Z,32.37
2022-08-08T12:27:00.102Z,32.18
2022-08-08T12:28:00.109Z,32.28
2022-08-08T12:29:00.102Z,32.26
2022-08-08T12:30:01.934Z,32.35
2022-08-08T12:31:00.104Z,32.47
2022-08-08T12:32:00.108Z,32.37
2022-08-08T12:33:00.146Z,32.57
2022-08-08T12:34:02.722Z,32.37
2022-08-08T12:35:13.633Z,32.18
2022-08-08T12:36:00.108Z,32.45
2022-08-08T12:37:00.108Z,32.26
2022-08-08T12:38:02.418Z,32.55
2022-08-08T12:39:00.124Z,32.37
2022-08-08T12:40:02.600Z,32.45
2022-08-08T12:41:04.420Z,33.14
2022-08-08T12:42:01.956Z,33.33
2022-08-08T12:43:00.113Z,33.93
2022-08-08T12:44:01.377Z,32.96
2022-08-08T12:45:00.121Z,31.98
2022-08-08T12:46:02.983Z,32.18
2022-08-08T12:47:02.717Z,32.18
2022-08-08T12:48:10.221Z,32.18
2022-08-08T12:50:00.132Z,32.08
2022-08-08T12:51:00.121Z,32.08
2022-08-08T12:52:01.112Z,32.08
2022-08-08T12:53:00.122Z,32.18